sensor_id;sensor_type;location;lat;lon;timestamp;P1;durP1;ratioP1;P2;durP2;ratioP2
28774;SDS011;15926;51.348;6.596;2022-11-11T05:03:13;10.23;;;7.05;;
28774;SDS011;15926;51.348;6.596;2022-11-11T05:05:56;12.10;;;6.90;;
28774;SDS011;15926;51.348;6.596;2022-11-11T05:08:42;10.35;;;6.57;;
28774;SDS011;15926;51.348;6.596;2022-11-11T05:13:46;14.82;;;7.00;;
28774;SDS011;15926;51.348;6.596;2022-11-11T05:16:32;11.48;;;6.90;;
28774;SDS011;15926;51.348;6.596;2022-11-11T05:19:18;13.63;;;6.47;;
28774;SDS011;15926;51.348;6.596;2022-11-11T05:22:05;12.05;;;6.35;;
28774;SDS011;15926;51.348;6.596;2022-11-11T05:27:16;9.55;;;5.80;;
28774;SDS011;15926;51.348;6.596;2022-11-11T05:29:42;10.35;;;6.32;;
28774;SDS011;15926;51.348;6.596;2022-11-11T05:32:08;10.77;;;6.70;;
28774;SDS011;15926;51.348;6.596;2022-11-11T05:34:34;11.90;;;7.07;;
28774;SDS011;15926;51.348;6.596;2022-11-11T05:37:00;10.20;;;6.63;;
28774;SDS011;15926;51.348;6.596;2022-11-11T05:39:26;12.07;;;6.20;;
28774;SDS011;15926;51.348;6.596;2022-11-11T05:41:52;16.50;;;7.60;;
28774;SDS011;15926;51.348;6.596;2022-11-11T05:44:18;10.93;;;6.68;;
28774;SDS011;15926;51.348;6.596;2022-11-11T05:46:44;11.68;;;6.43;;
28774;SDS011;15926;51.348;6.596;2022-11-11T05:49:10;11.80;;;6.82;;
28774;SDS011;15926;51.348;6.596;2022-11-11T05:51:39;11.27;;;5.70;;
28774;SDS011;15926;51.348;6.596;2022-11-11T05:54:05;9.85;;;6.38;;
28774;SDS011;15926;51.348;6.596;2022-11-11T05:56:31;11.52;;;6.13;;
28774;SDS011;15926;51.348;6.596;2022-11-11T05:58:57;8.57;;;5.72;;
28774;SDS011;15926;51.348;6.596;2022-11-11T06:01:23;8.18;;;5.57;;
28774;SDS011;15926;51.348;6.596;2022-11-11T06:03:49;11.60;;;6.45;;
28774;SDS011;15926;51.348;6.596;2022-11-11T06:06:15;9.10;;;5.85;;
28774;SDS011;15926;51.348;6.596;2022-11-11T06:08:41;11.27;;;6.32;;
28774;SDS011;15926;51.348;6.596;2022-11-11T06:11:07;11.98;;;6.70;;
28774;SDS011;15926;51.348;6.596;2022-11-11T06:13:33;8.73;;;5.85;;
28774;SDS011;15926;51.348;6.596;2022-11-11T06:16:01;13.60;;;6.45;;
28774;SDS011;15926;51.348;6.596;2022-11-11T06:18:27;10.93;;;5.80;;
28774;SDS011;15926;51.348;6.596;2022-11-11T06:20:53;9.38;;;6.68;;
28774;SDS011;15926;51.348;6.596;2022-11-11T06:23:20;12.68;;;6.60;;
28774;SDS011;15926;51.348;6.596;2022-11-11T06:25:46;12.20;;;6.82;;
28774;SDS011;15926;51.348;6.596;2022-11-11T06:28:31;14.55;;;6.63;;
28774;SDS011;15926;51.348;6.596;2022-11-11T06:30:57;13.50;;;7.07;;
28774;SDS011;15926;51.348;6.596;2022-11-11T06:33:23;13.82;;;6.93;;
28774;SDS011;15926;51.348;6.596;2022-11-11T06:35:50;13.02;;;6.38;;
28774;SDS011;15926;51.348;6.596;2022-11-11T06:38:16;12.05;;;6.90;;
28774;SDS011;15926;51.348;6.596;2022-11-11T06:40:42;12.50;;;6.95;;
28774;SDS011;15926;51.348;6.596;2022-11-11T06:43:08;15.27;;;6.60;;
28774;SDS011;15926;51.348;6.596;2022-11-11T06:45:35;12.90;;;6.40;;
28774;SDS011;15926;51.348;6.596;2022-11-11T06:48:01;12.32;;;6.53;;
28774;SDS011;15926;51.348;6.596;2022-11-11T06:50:27;16.00;;;7.18;;
28774;SDS011;15926;51.348;6.596;2022-11-11T06:52:53;9.48;;;6.50;;
28774;SDS011;15926;51.348;6.596;2022-11-11T06:55:19;12.30;;;6.35;;
28774;SDS011;15926;51.348;6.596;2022-11-11T06:57:45;11.10;;;6.20;;
28774;SDS011;15926;51.348;6.596;2022-11-11T07:00:14;10.27;;;6.18;;
28774;SDS011;15926;51.348;6.596;2022-11-11T07:02:43;10.77;;;6.47;;
28774;SDS011;15926;51.348;6.596;2022-11-11T07:05:09;11.48;;;6.30;;
28774;SDS011;15926;51.348;6.596;2022-11-11T07:07:35;8.52;;;5.90;;
28774;SDS011;15926;51.348;6.596;2022-11-11T07:10:01;13.40;;;6.22;;
28774;SDS011;15926;51.348;6.596;2022-11-11T07:12:27;12.30;;;6.53;;
28774;SDS011;15926;51.348;6.596;2022-11-11T07:14:54;15.68;;;6.10;;
28774;SDS011;15926;51.348;6.596;2022-11-11T07:17:20;17.35;;;6.88;;
28774;SDS011;15926;51.348;6.596;2022-11-11T07:19:46;12.60;;;6.90;;
28774;SDS011;15926;51.348;6.596;2022-11-11T07:22:12;9.82;;;6.28;;
28774;SDS011;15926;51.348;6.596;2022-11-11T07:24:38;9.20;;;6.22;;
28774;SDS011;15926;51.348;6.596;2022-11-11T07:27:04;10.68;;;6.47;;
28774;SDS011;15926;51.348;6.596;2022-11-11T07:29:30;16.52;;;6.45;;
28774;SDS011;15926;51.348;6.596;2022-11-11T07:31:56;10.60;;;5.43;;
28774;SDS011;15926;51.348;6.596;2022-11-11T07:34:22;10.63;;;6.07;;
28774;SDS011;15926;51.348;6.596;2022-11-11T07:36:48;8.73;;;5.10;;
28774;SDS011;15926;51.348;6.596;2022-11-11T07:39:14;10.07;;;6.10;;
28774;SDS011;15926;51.348;6.596;2022-11-11T07:41:40;9.10;;;5.45;;
28774;SDS011;15926;51.348;6.596;2022-11-11T07:44:06;9.43;;;6.18;;
28774;SDS011;15926;51.348;6.596;2022-11-11T07:46:32;9.32;;;6.32;;
28774;SDS011;15926;51.348;6.596;2022-11-11T07:48:57;8.75;;;6.05;;
28774;SDS011;15926;51.348;6.596;2022-11-11T07:51:23;9.68;;;6.20;;
28774;SDS011;15926;51.348;6.596;2022-11-11T07:53:49;9.63;;;5.63;;
28774;SDS011;15926;51.348;6.596;2022-11-11T07:56:15;12.65;;;5.90;;
28774;SDS011;15926;51.348;6.596;2022-11-11T07:58:41;9.63;;;6.05;;
28774;SDS011;15926;51.348;6.596;2022-11-11T08:01:07;9.68;;;6.40;;
28774;SDS011;15926;51.348;6.596;2022-11-11T08:03:33;9.40;;;6.75;;
28774;SDS011;15926;51.348;6.596;2022-11-11T08:06:01;10.35;;;6.07;;
28774;SDS011;15926;51.348;6.596;2022-11-11T08:08:27;13.75;;;5.88;;
28774;SDS011;15926;51.348;6.596;2022-11-11T08:10:53;11.55;;;5.80;;
28774;SDS011;15926;51.348;6.596;2022-11-11T08:13:19;9.52;;;5.78;;
28774;SDS011;15926;51.348;6.596;2022-11-11T08:16:04;12.65;;;5.78;;
28774;SDS011;15926;51.348;6.596;2022-11-11T08:18:31;9.30;;;5.32;;
28774;SDS011;15926;51.348;6.596;2022-11-11T08:20:57;8.10;;;5.90;;
28774;SDS011;15926;51.348;6.596;2022-11-11T08:23:23;9.00;;;5.57;;
28774;SDS011;15926;51.348;6.596;2022-11-11T08:26:05;9.13;;;5.70;;
28774;SDS011;15926;51.348;6.596;2022-11-11T08:28:32;8.52;;;4.95;;
28774;SDS011;15926;51.348;6.596;2022-11-11T08:31:00;8.63;;;6.28;;
28774;SDS011;15926;51.348;6.596;2022-11-11T08:33:27;9.02;;;5.53;;
28774;SDS011;15926;51.348;6.596;2022-11-11T08:35:53;7.28;;;4.72;;
28774;SDS011;15926;51.348;6.596;2022-11-11T08:38:20;9.25;;;5.15;;
28774;SDS011;15926;51.348;6.596;2022-11-11T08:40:47;6.55;;;4.85;;
28774;SDS011;15926;51.348;6.596;2022-11-11T08:43:13;6.93;;;4.88;;
28774;SDS011;15926;51.348;6.596;2022-11-11T08:45:39;7.07;;;4.75;;
28774;SDS011;15926;51.348;6.596;2022-11-11T08:48:06;9.20;;;4.93;;
28774;SDS011;15926;51.348;6.596;2022-11-11T08:50:34;8.82;;;5.30;;
28774;SDS011;15926;51.348;6.596;2022-11-11T08:53:00;14.10;;;5.75;;
28774;SDS011;15926;51.348;6.596;2022-11-11T08:55:26;7.57;;;4.70;;
28774;SDS011;15926;51.348;6.596;2022-11-11T08:57:59;6.47;;;3.83;;
28774;SDS011;15926;51.348;6.596;2022-11-11T09:00:25;8.77;;;3.78;;
28774;SDS011;15926;51.348;6.596;2022-11-11T09:02:51;12.98;;;4.43;;
28774;SDS011;15926;51.348;6.596;2022-11-11T09:05:17;8.68;;;4.60;;
28774;SDS011;15926;51.348;6.596;2022-11-11T09:07:43;7.57;;;3.97;;
28774;SDS011;15926;51.348;6.596;2022-11-11T09:10:09;5.95;;;4.22;;
28774;SDS011;15926;51.348;6.596;2022-11-11T09:12:35;6.10;;;3.88;;
28774;SDS011;15926;51.348;6.596;2022-11-11T09:15:02;6.72;;;4.40;;
28774;SDS011;15926;51.348;6.596;2022-11-11T09:17:28;7.32;;;4.35;;
28774;SDS011;15926;51.348;6.596;2022-11-11T09:19:54;7.63;;;4.40;;
28774;SDS011;15926;51.348;6.596;2022-11-11T09:22:20;8.38;;;4.07;;
28774;SDS011;15926;51.348;6.596;2022-11-11T09:24:47;10.10;;;4.10;;
28774;SDS011;15926;51.348;6.596;2022-11-11T09:27:13;5.68;;;4.15;;
28774;SDS011;15926;51.348;6.596;2022-11-11T09:29:39;4.82;;;3.75;;
28774;SDS011;15926;51.348;6.596;2022-11-11T09:32:05;6.57;;;4.40;;
28774;SDS011;15926;51.348;6.596;2022-11-11T09:34:31;10.38;;;4.35;;
28774;SDS011;15926;51.348;6.596;2022-11-11T09:36:57;4.15;;;3.50;;
28774;SDS011;15926;51.348;6.596;2022-11-11T09:39:23;7.45;;;4.53;;
28774;SDS011;15926;51.348;6.596;2022-11-11T09:54:40;8.13;;;3.63;;
28774;SDS011;15926;51.348;6.596;2022-11-11T09:57:51;6.47;;;3.42;;
28774;SDS011;15926;51.348;6.596;2022-11-11T09:59:57;6.15;;;3.58;;
28774;SDS011;15926;51.348;6.596;2022-11-11T10:02:28;5.85;;;3.70;;
28774;SDS011;15926;51.348;6.596;2022-11-11T10:09:59;3.80;;;3.22;;
28774;SDS011;15926;51.348;6.596;2022-11-11T10:12:32;3.83;;;3.35;;
28774;SDS011;15926;51.348;6.596;2022-11-11T10:15:01;6.10;;;3.20;;
28774;SDS011;15926;51.348;6.596;2022-11-11T10:17:37;4.93;;;3.00;;
28774;SDS011;15926;51.348;6.596;2022-11-11T10:22:32;4.20;;;3.15;;
28774;SDS011;15926;51.348;6.596;2022-11-11T10:25:06;5.93;;;3.17;;
28774;SDS011;15926;51.348;6.596;2022-11-11T10:27:32;4.53;;;3.30;;
28774;SDS011;15926;51.348;6.596;2022-11-11T10:29:58;3.92;;;3.08;;
28774;SDS011;15926;51.348;6.596;2022-11-11T10:32:31;5.43;;;2.33;;
28774;SDS011;15926;51.348;6.596;2022-11-11T10:35:11;3.28;;;2.97;;
28774;SDS011;15926;51.348;6.596;2022-11-11T10:37:41;3.95;;;2.65;;
28774;SDS011;15926;51.348;6.596;2022-11-11T10:42:42;5.90;;;3.15;;
28774;SDS011;15926;51.348;6.596;2022-11-11T10:45:28;5.35;;;2.83;;
28774;SDS011;15926;51.348;6.596;2022-11-11T10:48:06;3.80;;;2.55;;
28774;SDS011;15926;51.348;6.596;2022-11-11T10:50:38;4.07;;;2.95;;
28774;SDS011;15926;51.348;6.596;2022-11-11T10:55:36;6.75;;;3.42;;
28774;SDS011;15926;51.348;6.596;2022-11-11T10:58:11;5.68;;;2.95;;
28774;SDS011;15926;51.348;6.596;2022-11-11T11:00:39;7.40;;;2.63;;
28774;SDS011;15926;51.348;6.596;2022-11-11T11:03:13;4.28;;;2.55;;
28774;SDS011;15926;51.348;6.596;2022-11-11T11:05:44;4.28;;;3.00;;
28774;SDS011;15926;51.348;6.596;2022-11-11T11:08:19;3.17;;;2.55;;
28774;SDS011;15926;51.348;6.596;2022-11-11T11:10:48;3.25;;;2.70;;
28774;SDS011;15926;51.348;6.596;2022-11-11T11:15:54;4.28;;;3.40;;
28774;SDS011;15926;51.348;6.596;2022-11-11T11:18:22;4.57;;;2.58;;
28774;SDS011;15926;51.348;6.596;2022-11-11T11:21:06;2.92;;;2.70;;
28774;SDS011;15926;51.348;6.596;2022-11-11T11:26:05;3.30;;;2.92;;
28774;SDS011;15926;51.348;6.596;2022-11-11T11:28:31;7.45;;;3.28;;
28774;SDS011;15926;51.348;6.596;2022-11-11T11:31:03;3.72;;;2.53;;
28774;SDS011;15926;51.348;6.596;2022-11-11T11:33:49;3.17;;;2.67;;
28774;SDS011;15926;51.348;6.596;2022-11-11T11:36:15;6.03;;;2.70;;
28774;SDS011;15926;51.348;6.596;2022-11-11T11:38:43;3.15;;;2.67;;
28774;SDS011;15926;51.348;6.596;2022-11-11T11:41:16;5.63;;;2.63;;
28774;SDS011;15926;51.348;6.596;2022-11-11T11:43:45;4.40;;;2.58;;
28774;SDS011;15926;51.348;6.596;2022-11-11T11:51:35;4.95;;;2.60;;
28774;SDS011;15926;51.348;6.596;2022-11-11T11:54:17;3.83;;;3.00;;
28774;SDS011;15926;51.348;6.596;2022-11-11T11:56:49;6.40;;;2.70;;
28774;SDS011;15926;51.348;6.596;2022-11-11T12:02:05;2.55;;;2.35;;
28774;SDS011;15926;51.348;6.596;2022-11-11T12:12:54;4.50;;;2.72;;
28774;SDS011;15926;51.348;6.596;2022-11-11T12:18:05;6.75;;;2.80;;
28774;SDS011;15926;51.348;6.596;2022-11-11T12:20:19;5.10;;;3.00;;
28774;SDS011;15926;51.348;6.596;2022-11-11T12:28:01;3.72;;;2.88;;
28774;SDS011;15926;51.348;6.596;2022-11-11T12:30:29;5.63;;;3.00;;
28774;SDS011;15926;51.348;6.596;2022-11-11T12:41:17;3.17;;;2.22;;
28774;SDS011;15926;51.348;6.596;2022-11-11T12:43:49;5.65;;;2.80;;
28774;SDS011;15926;51.348;6.596;2022-11-11T12:49:05;4.65;;;3.05;;
28774;SDS011;15926;51.348;6.596;2022-11-11T13:16:54;2.67;;;2.30;;
28774;SDS011;15926;51.348;6.596;2022-11-11T13:20:04;4.45;;;2.45;;
28774;SDS011;15926;51.348;6.596;2022-11-11T13:24:35;5.30;;;2.13;;
28774;SDS011;15926;51.348;6.596;2022-11-11T13:32:12;5.30;;;2.03;;
28774;SDS011;15926;51.348;6.596;2022-11-11T13:34:39;3.22;;;2.17;;
28774;SDS011;15926;51.348;6.596;2022-11-11T13:37:06;4.13;;;2.00;;
28774;SDS011;15926;51.348;6.596;2022-11-11T13:39:43;3.13;;;1.75;;
28774;SDS011;15926;51.348;6.596;2022-11-11T13:42:10;3.10;;;2.15;;
28774;SDS011;15926;51.348;6.596;2022-11-11T13:47:17;3.38;;;2.00;;
28774;SDS011;15926;51.348;6.596;2022-11-11T13:49:54;2.35;;;2.05;;
28774;SDS011;15926;51.348;6.596;2022-11-11T13:52:35;2.75;;;1.63;;
28774;SDS011;15926;51.348;6.596;2022-11-11T13:55:04;3.25;;;2.30;;
28774;SDS011;15926;51.348;6.596;2022-11-11T13:57:31;3.90;;;2.30;;
28774;SDS011;15926;51.348;6.596;2022-11-11T14:00:04;4.07;;;2.10;;
28774;SDS011;15926;51.348;6.596;2022-11-11T14:02:31;3.22;;;2.08;;
28774;SDS011;15926;51.348;6.596;2022-11-11T14:17:54;3.78;;;2.50;;
28774;SDS011;15926;51.348;6.596;2022-11-11T14:20:32;3.80;;;2.20;;
28774;SDS011;15926;51.348;6.596;2022-11-11T14:25:45;4.22;;;2.15;;
28774;SDS011;15926;51.348;6.596;2022-11-11T14:28:22;7.45;;;2.95;;
28774;SDS011;15926;51.348;6.596;2022-11-11T14:30:49;7.35;;;3.25;;
28774;SDS011;15926;51.348;6.596;2022-11-11T14:35:55;4.40;;;2.20;;
28774;SDS011;15926;51.348;6.596;2022-11-11T14:38:26;4.47;;;2.10;;
28774;SDS011;15926;51.348;6.596;2022-11-11T14:40:55;4.53;;;2.03;;
28774;SDS011;15926;51.348;6.596;2022-11-11T14:43:39;4.30;;;2.20;;
28774;SDS011;15926;51.348;6.596;2022-11-11T14:46:06;3.83;;;1.85;;
28774;SDS011;15926;51.348;6.596;2022-11-11T14:54:03;3.28;;;2.05;;
28774;SDS011;15926;51.348;6.596;2022-11-11T14:56:30;4.82;;;2.38;;
28774;SDS011;15926;51.348;6.596;2022-11-11T14:58:58;3.08;;;2.40;;
28774;SDS011;15926;51.348;6.596;2022-11-11T15:01:28;3.45;;;2.00;;
28774;SDS011;15926;51.348;6.596;2022-11-11T15:03:55;2.90;;;2.40;;
28774;SDS011;15926;51.348;6.596;2022-11-11T15:06:23;10.07;;;2.33;;
28774;SDS011;15926;51.348;6.596;2022-11-11T15:08:57;4.50;;;2.00;;
28774;SDS011;15926;51.348;6.596;2022-11-11T15:11:32;2.88;;;2.00;;
28774;SDS011;15926;51.348;6.596;2022-11-11T15:19:33;2.25;;;1.90;;
28774;SDS011;15926;51.348;6.596;2022-11-11T15:22:23;4.32;;;1.85;;
28774;SDS011;15926;51.348;6.596;2022-11-11T15:27:41;2.33;;;1.60;;
28774;SDS011;15926;51.348;6.596;2022-11-11T15:30:11;2.88;;;1.45;;
28774;SDS011;15926;51.348;6.596;2022-11-11T15:37:45;4.40;;;1.88;;
28774;SDS011;15926;51.348;6.596;2022-11-11T15:40:20;1.85;;;1.40;;
28774;SDS011;15926;51.348;6.596;2022-11-11T15:42:46;4.15;;;1.92;;
28774;SDS011;15926;51.348;6.596;2022-11-11T15:47:43;2.33;;;1.80;;
28774;SDS011;15926;51.348;6.596;2022-11-11T15:50:17;2.70;;;1.92;;
28774;SDS011;15926;51.348;6.596;2022-11-11T15:52:43;2.72;;;1.77;;
28774;SDS011;15926;51.348;6.596;2022-11-11T15:55:26;4.38;;;1.80;;
28774;SDS011;15926;51.348;6.596;2022-11-11T15:57:52;3.78;;;2.03;;
28774;SDS011;15926;51.348;6.596;2022-11-11T16:00:25;5.35;;;1.90;;
28774;SDS011;15926;51.348;6.596;2022-11-11T16:02:52;3.97;;;2.10;;
28774;SDS011;15926;51.348;6.596;2022-11-11T16:05:23;3.28;;;2.13;;
28774;SDS011;15926;51.348;6.596;2022-11-11T16:07:49;2.28;;;1.85;;
28774;SDS011;15926;51.348;6.596;2022-11-11T16:10:26;4.90;;;2.50;;
28774;SDS011;15926;51.348;6.596;2022-11-11T16:12:56;3.67;;;2.50;;
28774;SDS011;15926;51.348;6.596;2022-11-11T16:17:48;3.45;;;2.30;;
28774;SDS011;15926;51.348;6.596;2022-11-11T16:20:14;5.03;;;3.15;;
28774;SDS011;15926;51.348;6.596;2022-11-11T16:22:41;4.60;;;3.30;;
28774;SDS011;15926;51.348;6.596;2022-11-11T16:25:17;3.70;;;3.05;;
28774;SDS011;15926;51.348;6.596;2022-11-11T16:27:44;6.13;;;4.28;;
28774;SDS011;15926;51.348;6.596;2022-11-11T16:30:17;7.68;;;3.70;;
28774;SDS011;15926;51.348;6.596;2022-11-11T16:32:43;6.63;;;3.40;;
28774;SDS011;15926;51.348;6.596;2022-11-11T16:35:23;5.88;;;3.72;;
28774;SDS011;15926;51.348;6.596;2022-11-11T16:37:50;3.88;;;3.42;;
28774;SDS011;15926;51.348;6.596;2022-11-11T16:45:46;5.50;;;3.35;;
28774;SDS011;15926;51.348;6.596;2022-11-11T16:54:10;6.20;;;4.10;;
28774;SDS011;15926;51.348;6.596;2022-11-11T16:56:36;4.03;;;3.50;;
28774;SDS011;15926;51.348;6.596;2022-11-11T16:59:15;5.57;;;3.63;;
28774;SDS011;15926;51.348;6.596;2022-11-11T17:01:42;4.72;;;3.20;;
28774;SDS011;15926;51.348;6.596;2022-11-11T17:04:08;3.92;;;3.40;;
28774;SDS011;15926;51.348;6.596;2022-11-11T17:06:54;4.72;;;3.20;;
28774;SDS011;15926;51.348;6.596;2022-11-11T17:09:32;5.05;;;3.38;;
28774;SDS011;15926;51.348;6.596;2022-11-11T17:11:58;6.15;;;3.28;;
28774;SDS011;15926;51.348;6.596;2022-11-11T17:14:25;5.32;;;3.45;;
28774;SDS011;15926;51.348;6.596;2022-11-11T17:16:51;3.63;;;3.15;;
28774;SDS011;15926;51.348;6.596;2022-11-11T17:19:17;7.38;;;3.75;;
28774;SDS011;15926;51.348;6.596;2022-11-11T17:21:45;6.93;;;3.97;;
28774;SDS011;15926;51.348;6.596;2022-11-11T17:24:11;6.47;;;3.70;;
28774;SDS011;15926;51.348;6.596;2022-11-11T17:26:38;6.40;;;3.92;;
28774;SDS011;15926;51.348;6.596;2022-11-11T17:29:08;6.80;;;3.60;;
28774;SDS011;15926;51.348;6.596;2022-11-11T17:31:37;4.13;;;3.72;;
28774;SDS011;15926;51.348;6.596;2022-11-11T17:34:04;6.47;;;4.00;;
28774;SDS011;15926;51.348;6.596;2022-11-11T17:36:30;7.63;;;4.43;;
28774;SDS011;15926;51.348;6.596;2022-11-11T17:38:56;5.25;;;3.75;;
28774;SDS011;15926;51.348;6.596;2022-11-11T17:41:23;5.60;;;4.22;;
28774;SDS011;15926;51.348;6.596;2022-11-11T17:43:49;8.27;;;3.70;;
28774;SDS011;15926;51.348;6.596;2022-11-11T17:46:15;5.85;;;4.05;;
28774;SDS011;15926;51.348;6.596;2022-11-11T17:48:41;7.63;;;3.83;;
28774;SDS011;15926;51.348;6.596;2022-11-11T17:51:07;6.05;;;4.13;;
28774;SDS011;15926;51.348;6.596;2022-11-11T17:53:34;7.03;;;4.40;;
28774;SDS011;15926;51.348;6.596;2022-11-11T17:56:01;10.32;;;4.35;;
28774;SDS011;15926;51.348;6.596;2022-11-11T17:58:27;7.53;;;4.38;;
28774;SDS011;15926;51.348;6.596;2022-11-11T18:00:53;10.27;;;4.95;;
28774;SDS011;15926;51.348;6.596;2022-11-11T18:03:19;7.97;;;4.20;;
28774;SDS011;15926;51.348;6.596;2022-11-11T18:05:45;4.95;;;4.45;;
28774;SDS011;15926;51.348;6.596;2022-11-11T18:08:11;7.30;;;4.20;;
28774;SDS011;15926;51.348;6.596;2022-11-11T18:10:37;8.85;;;4.45;;
28774;SDS011;15926;51.348;6.596;2022-11-11T18:13:03;5.55;;;3.95;;
28774;SDS011;15926;51.348;6.596;2022-11-11T18:15:29;6.57;;;4.82;;
28774;SDS011;15926;51.348;6.596;2022-11-11T18:17:58;6.72;;;4.88;;
28774;SDS011;15926;51.348;6.596;2022-11-11T18:20:24;7.45;;;4.68;;
28774;SDS011;15926;51.348;6.596;2022-11-11T18:22:53;5.22;;;4.53;;
28774;SDS011;15926;51.348;6.596;2022-11-11T18:25:20;5.60;;;4.70;;
28774;SDS011;15926;51.348;6.596;2022-11-11T18:27:46;6.82;;;4.60;;
28774;SDS011;15926;51.348;6.596;2022-11-11T18:30:13;8.38;;;4.80;;
28774;SDS011;15926;51.348;6.596;2022-11-11T18:32:40;6.68;;;4.72;;
28774;SDS011;15926;51.348;6.596;2022-11-11T18:35:06;8.38;;;5.20;;
28774;SDS011;15926;51.348;6.596;2022-11-11T18:37:32;12.65;;;5.82;;
28774;SDS011;15926;51.348;6.596;2022-11-11T18:40:00;8.97;;;6.17;;
28774;SDS011;15926;51.348;6.596;2022-11-11T18:42:26;9.57;;;6.03;;
28774;SDS011;15926;51.348;6.596;2022-11-11T18:44:52;8.70;;;5.90;;
28774;SDS011;15926;51.348;6.596;2022-11-11T18:47:18;12.75;;;6.47;;
28774;SDS011;15926;51.348;6.596;2022-11-11T18:49:44;9.95;;;6.72;;
28774;SDS011;15926;51.348;6.596;2022-11-11T18:52:10;9.82;;;6.55;;
28774;SDS011;15926;51.348;6.596;2022-11-11T18:54:36;9.82;;;7.07;;
28774;SDS011;15926;51.348;6.596;2022-11-11T18:57:02;9.32;;;6.35;;
28774;SDS011;15926;51.348;6.596;2022-11-11T18:59:28;10.13;;;6.55;;
28774;SDS011;15926;51.348;6.596;2022-11-11T19:01:54;11.82;;;6.57;;
28774;SDS011;15926;51.348;6.596;2022-11-11T19:04:20;10.60;;;7.10;;
28774;SDS011;15926;51.348;6.596;2022-11-11T19:06:46;12.00;;;6.82;;
28774;SDS011;15926;51.348;6.596;2022-11-11T19:09:12;12.30;;;6.47;;
28774;SDS011;15926;51.348;6.596;2022-11-11T19:11:39;10.68;;;5.97;;
28774;SDS011;15926;51.348;6.596;2022-11-11T19:14:06;14.30;;;6.72;;
28774;SDS011;15926;51.348;6.596;2022-11-11T19:16:33;11.10;;;5.20;;
28774;SDS011;15926;51.348;6.596;2022-11-11T19:18:59;9.30;;;5.65;;
28774;SDS011;15926;51.348;6.596;2022-11-11T19:21:26;9.65;;;5.15;;
28774;SDS011;15926;51.348;6.596;2022-11-11T19:23:53;10.50;;;4.57;;
28774;SDS011;15926;51.348;6.596;2022-11-11T19:26:19;8.18;;;4.45;;
28774;SDS011;15926;51.348;6.596;2022-11-11T19:28:46;8.73;;;4.47;;
28774;SDS011;15926;51.348;6.596;2022-11-11T19:31:13;10.13;;;5.00;;
28774;SDS011;15926;51.348;6.596;2022-11-11T19:33:40;8.07;;;4.28;;
28774;SDS011;15926;51.348;6.596;2022-11-11T19:36:07;8.48;;;5.13;;
28774;SDS011;15926;51.348;6.596;2022-11-11T19:38:34;10.23;;;5.10;;
28774;SDS011;15926;51.348;6.596;2022-11-11T19:41:10;11.20;;;5.30;;
28774;SDS011;15926;51.348;6.596;2022-11-11T19:43:36;8.25;;;5.43;;
28774;SDS011;15926;51.348;6.596;2022-11-11T19:46:03;10.15;;;5.78;;
28774;SDS011;15926;51.348;6.596;2022-11-11T19:48:29;10.15;;;5.68;;
28774;SDS011;15926;51.348;6.596;2022-11-11T19:50:55;8.50;;;5.53;;
28774;SDS011;15926;51.348;6.596;2022-11-11T19:53:22;14.93;;;4.95;;
28774;SDS011;15926;51.348;6.596;2022-11-11T19:56:01;11.60;;;4.63;;
28774;SDS011;15926;51.348;6.596;2022-11-11T19:58:27;7.90;;;4.43;;
28774;SDS011;15926;51.348;6.596;2022-11-11T20:00:54;7.40;;;4.18;;
28774;SDS011;15926;51.348;6.596;2022-11-11T20:03:20;10.02;;;4.13;;
28774;SDS011;15926;51.348;6.596;2022-11-11T20:05:46;4.40;;;3.80;;
28774;SDS011;15926;51.348;6.596;2022-11-11T20:08:13;6.97;;;4.20;;
28774;SDS011;15926;51.348;6.596;2022-11-11T20:10:40;7.13;;;3.95;;
28774;SDS011;15926;51.348;6.596;2022-11-11T20:13:06;8.85;;;4.40;;
28774;SDS011;15926;51.348;6.596;2022-11-11T20:15:32;6.65;;;3.83;;
28774;SDS011;15926;51.348;6.596;2022-11-11T20:17:58;5.32;;;4.00;;
28774;SDS011;15926;51.348;6.596;2022-11-11T20:20:25;9.45;;;4.32;;
28774;SDS011;15926;51.348;6.596;2022-11-11T20:22:51;8.57;;;4.28;;
28774;SDS011;15926;51.348;6.596;2022-11-11T20:25:17;5.70;;;4.40;;
28774;SDS011;15926;51.348;6.596;2022-11-11T20:27:44;5.97;;;4.10;;
28774;SDS011;15926;51.348;6.596;2022-11-11T20:30:10;5.50;;;4.40;;
28774;SDS011;15926;51.348;6.596;2022-11-11T20:32:37;5.75;;;4.75;;
28774;SDS011;15926;51.348;6.596;2022-11-11T20:35:03;5.93;;;4.25;;
28774;SDS011;15926;51.348;6.596;2022-11-11T20:37:30;6.70;;;4.30;;
28774;SDS011;15926;51.348;6.596;2022-11-11T20:39:56;7.95;;;4.30;;
28774;SDS011;15926;51.348;6.596;2022-11-11T20:42:22;5.75;;;4.25;;
28774;SDS011;15926;51.348;6.596;2022-11-11T20:44:48;9.00;;;5.05;;
28774;SDS011;15926;51.348;6.596;2022-11-11T20:47:14;6.97;;;4.22;;
28774;SDS011;15926;51.348;6.596;2022-11-11T20:49:40;10.05;;;4.88;;
28774;SDS011;15926;51.348;6.596;2022-11-11T20:52:07;5.03;;;4.40;;
28774;SDS011;15926;51.348;6.596;2022-11-11T20:54:35;4.68;;;4.03;;
28774;SDS011;15926;51.348;6.596;2022-11-11T20:57:02;8.23;;;4.30;;
28774;SDS011;15926;51.348;6.596;2022-11-11T20:59:28;5.65;;;4.47;;
28774;SDS011;15926;51.348;6.596;2022-11-11T21:01:54;6.55;;;4.22;;
28774;SDS011;15926;51.348;6.596;2022-11-11T21:04:20;8.75;;;3.70;;
28774;SDS011;15926;51.348;6.596;2022-11-11T21:06:46;6.10;;;3.60;;
28774;SDS011;15926;51.348;6.596;2022-11-11T21:09:12;4.53;;;3.58;;
28774;SDS011;15926;51.348;6.596;2022-11-11T21:11:38;4.50;;;3.42;;
28774;SDS011;15926;51.348;6.596;2022-11-11T21:14:04;6.65;;;3.92;;
28774;SDS011;15926;51.348;6.596;2022-11-11T21:16:32;4.85;;;3.35;;
28774;SDS011;15926;51.348;6.596;2022-11-11T21:18:58;6.32;;;3.85;;
28774;SDS011;15926;51.348;6.596;2022-11-11T21:21:25;4.30;;;3.25;;
28774;SDS011;15926;51.348;6.596;2022-11-11T21:24:24;5.28;;;3.65;;
28774;SDS011;15926;51.348;6.596;2022-11-11T21:26:43;8.70;;;3.38;;
28774;SDS011;15926;51.348;6.596;2022-11-11T21:29:11;4.03;;;3.10;;
28774;SDS011;15926;51.348;6.596;2022-11-11T21:31:37;3.90;;;3.50;;
28774;SDS011;15926;51.348;6.596;2022-11-11T21:34:08;4.60;;;3.50;;
28774;SDS011;15926;51.348;6.596;2022-11-11T21:36:36;5.70;;;3.42;;
28774;SDS011;15926;51.348;6.596;2022-11-11T21:39:04;4.22;;;3.13;;
28774;SDS011;15926;51.348;6.596;2022-11-11T21:41:31;7.88;;;3.78;;
28774;SDS011;15926;51.348;6.596;2022-11-11T21:43:57;4.75;;;3.03;;
28774;SDS011;15926;51.348;6.596;2022-11-11T21:46:24;5.43;;;3.65;;
28774;SDS011;15926;51.348;6.596;2022-11-11T21:48:51;4.95;;;3.70;;
28774;SDS011;15926;51.348;6.596;2022-11-11T21:51:21;4.30;;;2.70;;
28774;SDS011;15926;51.348;6.596;2022-11-11T21:53:52;3.92;;;3.03;;
28774;SDS011;15926;51.348;6.596;2022-11-11T21:56:21;4.20;;;3.25;;
28774;SDS011;15926;51.348;6.596;2022-11-11T21:58:48;3.85;;;3.45;;
